sensor_id;sensor_type;location;lat;lon;timestamp;temperature;humidity
54126;DHT22;40360;52.992;6.796;2023-03-21T00:01:35;9.10;99.90
54126;DHT22;40360;52.992;6.796;2023-03-21T00:04:01;9.10;99.90
54126;DHT22;40360;52.992;6.796;2023-03-21T00:06:27;9.20;99.90
54126;DHT22;40360;52.992;6.796;2023-03-21T00:08:52;9.20;99.90
54126;DHT22;40360;52.992;6.796;2023-03-21T00:11:18;9.10;99.90
54126;DHT22;40360;52.992;6.796;2023-03-21T00:13:43;9.20;99.90
54126;DHT22;40360;52.992;6.796;2023-03-21T00:16:15;9.20;99.90
54126;DHT22;40360;52.992;6.796;2023-03-21T00:18:45;9.40;99.90
54126;DHT22;40360;52.992;6.796;2023-03-21T00:21:14;9.20;99.90
54126;DHT22;40360;52.992;6.796;2023-03-21T00:23:40;9.20;99.90
54126;DHT22;40360;52.992;6.796;2023-03-21T00:26:09;9.20;99.90
54126;DHT22;40360;52.992;6.796;2023-03-21T00:28:40;9.30;99.90
54126;DHT22;40360;52.992;6.796;2023-03-21T00:31:06;9.30;99.90
54126;DHT22;40360;52.992;6.796;2023-03-21T00:33:32;9.30;99.90
54126;DHT22;40360;52.992;6.796;2023-03-21T00:35:59;9.30;99.90
54126;DHT22;40360;52.992;6.796;2023-03-21T00:38:25;9.30;99.90
54126;DHT22;40360;52.992;6.796;2023-03-21T00:40:51;9.30;99.90
54126;DHT22;40360;52.992;6.796;2023-03-21T00:43:18;9.30;99.90
54126;DHT22;40360;52.992;6.796;2023-03-21T00:45:50;9.30;99.90
54126;DHT22;40360;52.992;6.796;2023-03-21T00:48:23;9.30;99.90
54126;DHT22;40360;52.992;6.796;2023-03-21T00:50:50;9.30;99.90
54126;DHT22;40360;52.992;6.796;2023-03-21T00:53:17;9.30;99.90
54126;DHT22;40360;52.992;6.796;2023-03-21T00:55:42;9.30;99.90
54126;DHT22;40360;52.992;6.796;2023-03-21T00:58:08;9.30;99.90
54126;DHT22;40360;52.992;6.796;2023-03-21T01:00:34;9.30;99.90
54126;DHT22;40360;52.992;6.796;2023-03-21T01:03:05;9.30;99.90
54126;DHT22;40360;52.992;6.796;2023-03-21T01:05:45;9.30;99.90
54126;DHT22;40360;52.992;6.796;2023-03-21T01:08:30;9.30;99.90
54126;DHT22;40360;52.992;6.796;2023-03-21T01:10:56;9.30;99.90
54126;DHT22;40360;52.992;6.796;2023-03-21T01:13:25;9.30;99.90
54126;DHT22;40360;52.992;6.796;2023-03-21T01:15:53;9.30;99.90
54126;DHT22;40360;52.992;6.796;2023-03-21T01:18:23;9.30;99.90
54126;DHT22;40360;52.992;6.796;2023-03-21T01:20:51;9.30;99.90
54126;DHT22;40360;52.992;6.796;2023-03-21T01:23:17;9.30;99.90
54126;DHT22;40360;52.992;6.796;2023-03-21T01:25:43;9.30;99.90
54126;DHT22;40360;52.992;6.796;2023-03-21T01:28:09;9.30;99.90
54126;DHT22;40360;52.992;6.796;2023-03-21T01:30:35;9.30;99.90
54126;DHT22;40360;52.992;6.796;2023-03-21T01:33:01;9.30;99.90
54126;DHT22;40360;52.992;6.796;2023-03-21T01:35:26;9.30;99.90
54126;DHT22;40360;52.992;6.796;2023-03-21T01:37:52;9.30;99.90
54126;DHT22;40360;52.992;6.796;2023-03-21T01:40:23;9.30;99.90
54126;DHT22;40360;52.992;6.796;2023-03-21T01:42:50;9.30;99.90
54126;DHT22;40360;52.992;6.796;2023-03-21T01:48:20;9.30;99.90
54126;DHT22;40360;52.992;6.796;2023-03-21T01:50:46;9.30;99.90
54126;DHT22;40360;52.992;6.796;2023-03-21T01:53:13;9.30;99.90
54126;DHT22;40360;52.992;6.796;2023-03-21T01:55:39;9.30;99.90
54126;DHT22;40360;52.992;6.796;2023-03-21T01:58:06;9.40;99.90
54126;DHT22;40360;52.992;6.796;2023-03-21T02:00:33;9.40;99.90
54126;DHT22;40360;52.992;6.796;2023-03-21T02:03:00;9.40;99.90
54126;DHT22;40360;52.992;6.796;2023-03-21T02:05:39;9.40;99.90
54126;DHT22;40360;52.992;6.796;2023-03-21T02:08:08;9.40;99.90
54126;DHT22;40360;52.992;6.796;2023-03-21T02:10:34;9.40;99.90
54126;DHT22;40360;52.992;6.796;2023-03-21T02:13:03;9.40;99.90
54126;DHT22;40360;52.992;6.796;2023-03-21T02:15:37;9.40;99.90
54126;DHT22;40360;52.992;6.796;2023-03-21T02:18:26;9.40;99.90
54126;DHT22;40360;52.992;6.796;2023-03-21T02:26:55;9.40;99.90
54126;DHT22;40360;52.992;6.796;2023-03-21T02:37:39;9.40;99.90
54126;DHT22;40360;52.992;6.796;2023-03-21T02:40:31;9.40;99.90
54126;DHT22;40360;52.992;6.796;2023-03-21T02:43:15;9.40;99.90
54126;DHT22;40360;52.992;6.796;2023-03-21T02:45:51;9.40;99.90
54126;DHT22;40360;52.992;6.796;2023-03-21T02:48:19;9.40;99.90
54126;DHT22;40360;52.992;6.796;2023-03-21T02:50:52;9.40;99.90
54126;DHT22;40360;52.992;6.796;2023-03-21T02:53:20;9.40;99.90
54126;DHT22;40360;52.992;6.796;2023-03-21T02:55:48;9.40;99.90
54126;DHT22;40360;52.992;6.796;2023-03-21T02:58:18;9.40;99.90
54126;DHT22;40360;52.992;6.796;2023-03-21T03:00:45;9.50;99.90
54126;DHT22;40360;52.992;6.796;2023-03-21T03:03:11;9.40;99.90
54126;DHT22;40360;52.992;6.796;2023-03-21T03:05:48;9.40;99.90
54126;DHT22;40360;52.992;6.796;2023-03-21T03:11:33;9.40;99.90
54126;DHT22;40360;52.992;6.796;2023-03-21T03:22:22;9.40;99.90
54126;DHT22;40360;52.992;6.796;2023-03-21T03:24:57;9.40;99.90
54126;DHT22;40360;52.992;6.796;2023-03-21T03:27:32;9.40;99.90
54126;DHT22;40360;52.992;6.796;2023-03-21T03:30:01;9.50;99.90
54126;DHT22;40360;52.992;6.796;2023-03-21T03:32:35;9.40;99.90
54126;DHT22;40360;52.992;6.796;2023-03-21T03:35:03;9.40;99.90
54126;DHT22;40360;52.992;6.796;2023-03-21T03:37:32;9.40;99.90
54126;DHT22;40360;52.992;6.796;2023-03-21T03:40:44;9.40;99.90
54126;DHT22;40360;52.992;6.796;2023-03-21T03:42:55;9.40;99.90
54126;DHT22;40360;52.992;6.796;2023-03-21T03:45:29;9.40;99.90
54126;DHT22;40360;52.992;6.796;2023-03-21T03:48:05;9.40;99.90
54126;DHT22;40360;52.992;6.796;2023-03-21T03:50:40;9.40;99.90
54126;DHT22;40360;52.992;6.796;2023-03-21T03:53:29;9.40;99.90
54126;DHT22;40360;52.992;6.796;2023-03-21T03:55:58;9.40;99.90
54126;DHT22;40360;52.992;6.796;2023-03-21T03:58:25;9.40;99.90
54126;DHT22;40360;52.992;6.796;2023-03-21T04:00:53;9.40;99.90
54126;DHT22;40360;52.992;6.796;2023-03-21T04:03:19;9.40;99.90
54126;DHT22;40360;52.992;6.796;2023-03-21T04:05:45;9.40;99.90
54126;DHT22;40360;52.992;6.796;2023-03-21T04:08:12;9.40;99.90
54126;DHT22;40360;52.992;6.796;2023-03-21T04:10:39;9.40;99.90
54126;DHT22;40360;52.992;6.796;2023-03-21T04:13:05;9.40;99.90
54126;DHT22;40360;52.992;6.796;2023-03-21T04:15:30;9.40;99.90
54126;DHT22;40360;52.992;6.796;2023-03-21T04:17:56;9.40;99.90
54126;DHT22;40360;52.992;6.796;2023-03-21T04:20:22;9.40;99.90
54126;DHT22;40360;52.992;6.796;2023-03-21T04:22:48;9.40;99.90
54126;DHT22;40360;52.992;6.796;2023-03-21T04:25:13;9.30;99.90
54126;DHT22;40360;52.992;6.796;2023-03-21T04:27:39;9.40;99.90
54126;DHT22;40360;52.992;6.796;2023-03-21T04:30:05;9.40;99.90
54126;DHT22;40360;52.992;6.796;2023-03-21T04:32:32;9.40;99.90
54126;DHT22;40360;52.992;6.796;2023-03-21T04:34:59;9.40;99.90
54126;DHT22;40360;52.992;6.796;2023-03-21T04:37:25;9.40;99.90
54126;DHT22;40360;52.992;6.796;2023-03-21T04:39:52;9.40;99.90
54126;DHT22;40360;52.992;6.796;2023-03-21T04:42:18;9.40;99.90
54126;DHT22;40360;52.992;6.796;2023-03-21T04:44:45;9.40;99.90
54126;DHT22;40360;52.992;6.796;2023-03-21T04:47:11;9.40;99.90
54126;DHT22;40360;52.992;6.796;2023-03-21T04:49:38;9.40;99.90
54126;DHT22;40360;52.992;6.796;2023-03-21T04:52:04;9.40;99.90
54126;DHT22;40360;52.992;6.796;2023-03-21T04:54:30;9.40;99.90
54126;DHT22;40360;52.992;6.796;2023-03-21T04:56:57;9.40;99.90
54126;DHT22;40360;52.992;6.796;2023-03-21T04:59:23;9.30;99.90
54126;DHT22;40360;52.992;6.796;2023-03-21T05:01:49;9.30;99.90
54126;DHT22;40360;52.992;6.796;2023-03-21T05:04:17;9.30;99.90
54126;DHT22;40360;52.992;6.796;2023-03-21T05:06:44;9.30;99.90
54126;DHT22;40360;52.992;6.796;2023-03-21T05:09:11;9.30;99.90
54126;DHT22;40360;52.992;6.796;2023-03-21T05:11:38;9.30;99.90
54126;DHT22;40360;52.992;6.796;2023-03-21T05:14:06;9.30;99.90
54126;DHT22;40360;52.992;6.796;2023-03-21T05:16:33;9.30;99.90
54126;DHT22;40360;52.992;6.796;2023-03-21T05:19:00;9.30;99.90
54126;DHT22;40360;52.992;6.796;2023-03-21T05:21:32;9.30;99.90
54126;DHT22;40360;52.992;6.796;2023-03-21T05:24:06;9.30;99.90
54126;DHT22;40360;52.992;6.796;2023-03-21T05:26:38;9.30;99.90
54126;DHT22;40360;52.992;6.796;2023-03-21T05:29:05;9.30;99.90
54126;DHT22;40360;52.992;6.796;2023-03-21T05:31:31;9.30;99.90
54126;DHT22;40360;52.992;6.796;2023-03-21T05:33:57;9.30;99.90
54126;DHT22;40360;52.992;6.796;2023-03-21T05:36:22;9.30;99.90
54126;DHT22;40360;52.992;6.796;2023-03-21T05:38:48;9.30;99.90
54126;DHT22;40360;52.992;6.796;2023-03-21T05:41:15;9.30;99.90
54126;DHT22;40360;52.992;6.796;2023-03-21T06:01:58;9.30;99.90
54126;DHT22;40360;52.992;6.796;2023-03-21T06:04:24;9.30;99.90
54126;DHT22;40360;52.992;6.796;2023-03-21T06:06:50;9.30;99.90
54126;DHT22;40360;52.992;6.796;2023-03-21T06:09:18;9.30;99.90
54126;DHT22;40360;52.992;6.796;2023-03-21T06:11:47;9.30;99.90
54126;DHT22;40360;52.992;6.796;2023-03-21T06:14:13;9.30;99.90
54126;DHT22;40360;52.992;6.796;2023-03-21T06:16:39;9.30;99.90
54126;DHT22;40360;52.992;6.796;2023-03-21T06:19:04;9.30;99.90
54126;DHT22;40360;52.992;6.796;2023-03-21T06:21:30;9.30;99.90
54126;DHT22;40360;52.992;6.796;2023-03-21T06:23:56;9.30;99.90
54126;DHT22;40360;52.992;6.796;2023-03-21T06:26:21;9.30;99.90
54126;DHT22;40360;52.992;6.796;2023-03-21T06:28:51;9.30;99.90
54126;DHT22;40360;52.992;6.796;2023-03-21T06:31:17;9.30;99.90
54126;DHT22;40360;52.992;6.796;2023-03-21T06:33:47;9.30;99.90
54126;DHT22;40360;52.992;6.796;2023-03-21T06:36:13;9.30;99.90
54126;DHT22;40360;52.992;6.796;2023-03-21T06:38:39;9.30;99.90
54126;DHT22;40360;52.992;6.796;2023-03-21T06:41:05;9.30;99.90
54126;DHT22;40360;52.992;6.796;2023-03-21T06:43:32;9.30;99.90
54126;DHT22;40360;52.992;6.796;2023-03-21T06:45:59;9.30;99.90
54126;DHT22;40360;52.992;6.796;2023-03-21T06:48:25;9.30;99.90
54126;DHT22;40360;52.992;6.796;2023-03-21T06:50:52;9.30;99.90
54126;DHT22;40360;52.992;6.796;2023-03-21T06:53:20;9.30;99.90
54126;DHT22;40360;52.992;6.796;2023-03-21T06:55:53;9.30;99.90
54126;DHT22;40360;52.992;6.796;2023-03-21T06:58:19;9.30;99.90
54126;DHT22;40360;52.992;6.796;2023-03-21T07:00:45;9.30;99.90
54126;DHT22;40360;52.992;6.796;2023-03-21T07:03:11;9.30;99.90
54126;DHT22;40360;52.992;6.796;2023-03-21T07:05:37;9.30;99.90
54126;DHT22;40360;52.992;6.796;2023-03-21T07:08:04;9.30;99.90
54126;DHT22;40360;52.992;6.796;2023-03-21T07:10:30;9.40;99.90
54126;DHT22;40360;52.992;6.796;2023-03-21T07:12:59;9.40;99.90
54126;DHT22;40360;52.992;6.796;2023-03-21T07:15:25;9.40;99.90
54126;DHT22;40360;52.992;6.796;2023-03-21T07:17:51;9.40;99.90
54126;DHT22;40360;52.992;6.796;2023-03-21T07:20:16;9.40;99.90
54126;DHT22;40360;52.992;6.796;2023-03-21T07:22:42;9.40;99.90
54126;DHT22;40360;52.992;6.796;2023-03-21T07:25:09;9.40;99.90
54126;DHT22;40360;52.992;6.796;2023-03-21T07:27:35;9.40;99.90
54126;DHT22;40360;52.992;6.796;2023-03-21T07:30:02;9.40;99.90
54126;DHT22;40360;52.992;6.796;2023-03-21T07:32:34;9.50;99.90
54126;DHT22;40360;52.992;6.796;2023-03-21T07:35:02;9.50;99.90
54126;DHT22;40360;52.992;6.796;2023-03-21T07:37:28;9.50;99.90
54126;DHT22;40360;52.992;6.796;2023-03-21T07:39:54;9.50;99.90
54126;DHT22;40360;52.992;6.796;2023-03-21T07:42:20;9.50;99.90
54126;DHT22;40360;52.992;6.796;2023-03-21T07:44:46;9.50;99.90
54126;DHT22;40360;52.992;6.796;2023-03-21T07:47:11;9.50;99.90
54126;DHT22;40360;52.992;6.796;2023-03-21T07:49:37;9.60;99.90
54126;DHT22;40360;52.992;6.796;2023-03-21T07:52:03;9.60;99.90
54126;DHT22;40360;52.992;6.796;2023-03-21T07:54:29;9.60;99.90
54126;DHT22;40360;52.992;6.796;2023-03-21T07:56:55;9.60;99.90
54126;DHT22;40360;52.992;6.796;2023-03-21T07:59:22;9.60;99.90
54126;DHT22;40360;52.992;6.796;2023-03-21T08:01:48;9.60;99.90
54126;DHT22;40360;52.992;6.796;2023-03-21T08:04:13;9.60;99.90
54126;DHT22;40360;52.992;6.796;2023-03-21T08:06:39;9.60;99.90
54126;DHT22;40360;52.992;6.796;2023-03-21T08:09:05;9.60;99.90
54126;DHT22;40360;52.992;6.796;2023-03-21T08:11:31;9.60;99.90
54126;DHT22;40360;52.992;6.796;2023-03-21T08:13:58;9.60;99.90
54126;DHT22;40360;52.992;6.796;2023-03-21T08:16:23;9.60;99.90
54126;DHT22;40360;52.992;6.796;2023-03-21T08:18:49;9.60;99.90
54126;DHT22;40360;52.992;6.796;2023-03-21T08:21:15;9.60;99.90
54126;DHT22;40360;52.992;6.796;2023-03-21T08:23:41;9.60;99.90
54126;DHT22;40360;52.992;6.796;2023-03-21T08:26:06;9.60;99.90
54126;DHT22;40360;52.992;6.796;2023-03-21T08:28:34;9.60;99.90
54126;DHT22;40360;52.992;6.796;2023-03-21T08:31:06;9.60;99.90
54126;DHT22;40360;52.992;6.796;2023-03-21T08:33:32;9.60;99.90
54126;DHT22;40360;52.992;6.796;2023-03-21T08:35:59;9.60;99.90
54126;DHT22;40360;52.992;6.796;2023-03-21T08:38:25;9.60;99.90
54126;DHT22;40360;52.992;6.796;2023-03-21T08:40:54;9.60;99.90
54126;DHT22;40360;52.992;6.796;2023-03-21T08:43:21;9.60;99.90
54126;DHT22;40360;52.992;6.796;2023-03-21T08:45:47;9.70;99.90
54126;DHT22;40360;52.992;6.796;2023-03-21T08:48:12;9.60;99.90
54126;DHT22;40360;52.992;6.796;2023-03-21T08:50:38;9.60;99.90
54126;DHT22;40360;52.992;6.796;2023-03-21T08:53:03;9.60;99.90
54126;DHT22;40360;52.992;6.796;2023-03-21T08:55:30;9.60;99.90
54126;DHT22;40360;52.992;6.796;2023-03-21T08:57:58;9.60;99.90
54126;DHT22;40360;52.992;6.796;2023-03-21T09:00:24;9.70;99.90
54126;DHT22;40360;52.992;6.796;2023-03-21T09:02:50;9.70;99.90
54126;DHT22;40360;52.992;6.796;2023-03-21T09:05:17;9.70;99.90
54126;DHT22;40360;52.992;6.796;2023-03-21T09:07:44;9.70;99.90
54126;DHT22;40360;52.992;6.796;2023-03-21T09:10:14;9.70;99.90
54126;DHT22;40360;52.992;6.796;2023-03-21T09:12:40;9.70;99.90
54126;DHT22;40360;52.992;6.796;2023-03-21T09:15:08;9.70;99.90
54126;DHT22;40360;52.992;6.796;2023-03-21T09:17:33;9.70;99.90
54126;DHT22;40360;52.992;6.796;2023-03-21T09:20:00;9.70;99.90
54126;DHT22;40360;52.992;6.796;2023-03-21T09:22:32;9.70;99.90
54126;DHT22;40360;52.992;6.796;2023-03-21T09:24:58;9.70;99.90
54126;DHT22;40360;52.992;6.796;2023-03-21T09:27:28;9.80;99.90
54126;DHT22;40360;52.992;6.796;2023-03-21T09:29:54;9.80;99.90
54126;DHT22;40360;52.992;6.796;2023-03-21T09:32:21;9.80;99.90
54126;DHT22;40360;52.992;6.796;2023-03-21T09:34:48;9.80;99.90
54126;DHT22;40360;52.992;6.796;2023-03-21T09:37:13;9.80;99.90
54126;DHT22;40360;52.992;6.796;2023-03-21T09:39:40;9.80;99.90
54126;DHT22;40360;52.992;6.796;2023-03-21T09:47:40;9.80;99.90
54126;DHT22;40360;52.992;6.796;2023-03-21T09:50:16;9.80;99.90
54126;DHT22;40360;52.992;6.796;2023-03-21T09:53:10;9.80;99.90
54126;DHT22;40360;52.992;6.796;2023-03-21T09:55:39;9.80;99.90
54126;DHT22;40360;52.992;6.796;2023-03-21T09:58:27;9.80;99.90
54126;DHT22;40360;52.992;6.796;2023-03-21T10:01:17;9.80;99.90
54126;DHT22;40360;52.992;6.796;2023-03-21T10:03:52;9.80;99.90
54126;DHT22;40360;52.992;6.796;2023-03-21T10:06:22;9.90;99.90
54126;DHT22;40360;52.992;6.796;2023-03-21T10:08:54;9.90;99.90
54126;DHT22;40360;52.992;6.796;2023-03-21T10:11:25;9.90;99.90
54126;DHT22;40360;52.992;6.796;2023-03-21T10:13:56;9.80;99.90
54126;DHT22;40360;52.992;6.796;2023-03-21T10:16:27;9.80;99.90
54126;DHT22;40360;52.992;6.796;2023-03-21T10:18:54;9.80;99.90
54126;DHT22;40360;52.992;6.796;2023-03-21T10:21:24;9.80;99.90
54126;DHT22;40360;52.992;6.796;2023-03-21T10:23:53;9.80;99.90
54126;DHT22;40360;52.992;6.796;2023-03-21T10:26:21;9.70;99.90
54126;DHT22;40360;52.992;6.796;2023-03-21T10:28:49;9.70;99.90
54126;DHT22;40360;52.992;6.796;2023-03-21T10:31:17;9.70;99.90
54126;DHT22;40360;52.992;6.796;2023-03-21T10:33:46;9.80;99.90
54126;DHT22;40360;52.992;6.796;2023-03-21T10:36:20;9.80;99.90
54126;DHT22;40360;52.992;6.796;2023-03-21T10:38:50;9.80;99.90
54126;DHT22;40360;52.992;6.796;2023-03-21T10:41:17;9.80;99.90
54126;DHT22;40360;52.992;6.796;2023-03-21T10:46:20;9.80;99.90
54126;DHT22;40360;52.992;6.796;2023-03-21T10:48:51;9.80;99.90
54126;DHT22;40360;52.992;6.796;2023-03-21T10:51:22;9.80;99.90
54126;DHT22;40360;52.992;6.796;2023-03-21T10:54:14;10.20;99.90
54126;DHT22;40360;52.992;6.796;2023-03-21T10:56:44;9.90;99.90
54126;DHT22;40360;52.992;6.796;2023-03-21T11:04:25;10.00;99.90
54126;DHT22;40360;52.992;6.796;2023-03-21T11:06:55;10.00;99.90
54126;DHT22;40360;52.992;6.796;2023-03-21T11:09:26;10.10;99.90
54126;DHT22;40360;52.992;6.796;2023-03-21T11:12:13;10.30;99.90
54126;DHT22;40360;52.992;6.796;2023-03-21T11:14:45;10.20;99.90
54126;DHT22;40360;52.992;6.796;2023-03-21T11:17:18;10.20;99.90
54126;DHT22;40360;52.992;6.796;2023-03-21T11:19:53;10.60;99.90
54126;DHT22;40360;52.992;6.796;2023-03-21T11:22:24;10.30;99.90
54126;DHT22;40360;52.992;6.796;2023-03-21T11:24:55;11.30;99.90
54126;DHT22;40360;52.992;6.796;2023-03-21T11:27:24;10.50;99.90
54126;DHT22;40360;52.992;6.796;2023-03-21T11:29:55;10.60;99.90
54126;DHT22;40360;52.992;6.796;2023-03-21T11:32:32;10.70;99.90
54126;DHT22;40360;52.992;6.796;2023-03-21T11:35:01;10.80;99.90
54126;DHT22;40360;52.992;6.796;2023-03-21T11:40:35;10.90;99.90
54126;DHT22;40360;52.992;6.796;2023-03-21T11:45:59;11.10;99.90
54126;DHT22;40360;52.992;6.796;2023-03-21T11:48:26;11.10;99.90
54126;DHT22;40360;52.992;6.796;2023-03-21T11:50:59;11.20;99.90
54126;DHT22;40360;52.992;6.796;2023-03-21T11:53:47;11.30;99.90
54126;DHT22;40360;52.992;6.796;2023-03-21T11:59:14;11.30;99.90
54126;DHT22;40360;52.992;6.796;2023-03-21T12:01:58;11.30;99.90
54126;DHT22;40360;52.992;6.796;2023-03-21T12:10:29;11.30;99.90
54126;DHT22;40360;52.992;6.796;2023-03-21T12:19:12;11.30;99.90
54126;DHT22;40360;52.992;6.796;2023-03-21T12:27:38;11.30;99.90
54126;DHT22;40360;52.992;6.796;2023-03-21T12:30:13;11.30;99.90
54126;DHT22;40360;52.992;6.796;2023-03-21T12:38:51;11.60;99.90
54126;DHT22;40360;52.992;6.796;2023-03-21T12:41:25;11.50;99.90
54126;DHT22;40360;52.992;6.796;2023-03-21T12:44:09;11.70;99.90
54126;DHT22;40360;52.992;6.796;2023-03-21T12:46:49;11.40;99.90
54126;DHT22;40360;52.992;6.796;2023-03-21T12:49:40;11.40;99.90
54126;DHT22;40360;52.992;6.796;2023-03-21T12:52:18;11.40;99.90
54126;DHT22;40360;52.992;6.796;2023-03-21T12:54:51;11.30;99.90
54126;DHT22;40360;52.992;6.796;2023-03-21T12:57:27;11.20;99.90
54126;DHT22;40360;52.992;6.796;2023-03-21T13:03:05;11.30;99.90
54126;DHT22;40360;52.992;6.796;2023-03-21T13:05:45;11.30;99.90
54126;DHT22;40360;52.992;6.796;2023-03-21T13:10:46;11.30;99.90
54126;DHT22;40360;52.992;6.796;2023-03-21T13:13:35;11.40;99.90
54126;DHT22;40360;52.992;6.796;2023-03-21T13:16:29;11.40;99.90
54126;DHT22;40360;52.992;6.796;2023-03-21T13:19:12;11.40;99.90
54126;DHT22;40360;52.992;6.796;2023-03-21T13:29:51;11.60;99.90
54126;DHT22;40360;52.992;6.796;2023-03-21T13:32:29;11.80;99.90
54126;DHT22;40360;52.992;6.796;2023-03-21T13:34:59;11.90;99.90
54126;DHT22;40360;52.992;6.796;2023-03-21T13:37:30;12.30;99.90
54126;DHT22;40360;52.992;6.796;2023-03-21T13:40:04;12.10;99.90
54126;DHT22;40360;52.992;6.796;2023-03-21T13:42:43;12.10;99.90
54126;DHT22;40360;52.992;6.796;2023-03-21T13:45:21;12.20;99.90
54126;DHT22;40360;52.992;6.796;2023-03-21T13:47:54;12.50;99.90
54126;DHT22;40360;52.992;6.796;2023-03-21T13:50:27;11.90;99.90
54126;DHT22;40360;52.992;6.796;2023-03-21T13:53:15;11.90;99.90
54126;DHT22;40360;52.992;6.796;2023-03-21T13:55:45;12.00;99.90
54126;DHT22;40360;52.992;6.796;2023-03-21T13:58:31;12.00;99.90
54126;DHT22;40360;52.992;6.796;2023-03-21T14:01:25;12.00;99.90
54126;DHT22;40360;52.992;6.796;2023-03-21T14:04:11;11.90;99.90
54126;DHT22;40360;52.992;6.796;2023-03-21T14:06:49;12.00;99.90
54126;DHT22;40360;52.992;6.796;2023-03-21T14:09:29;12.00;99.90
54126;DHT22;40360;52.992;6.796;2023-03-21T14:11:57;12.00;99.90
54126;DHT22;40360;52.992;6.796;2023-03-21T14:14:28;12.00;99.90
54126;DHT22;40360;52.992;6.796;2023-03-21T14:16:54;12.00;99.90
54126;DHT22;40360;52.992;6.796;2023-03-21T14:19:28;12.00;99.90
54126;DHT22;40360;52.992;6.796;2023-03-21T14:21:54;12.10;99.90
54126;DHT22;40360;52.992;6.796;2023-03-21T14:24:20;12.10;99.90
54126;DHT22;40360;52.992;6.796;2023-03-21T14:26:50;12.20;99.90
54126;DHT22;40360;52.992;6.796;2023-03-21T14:29:25;12.20;99.90
54126;DHT22;40360;52.992;6.796;2023-03-21T14:31:56;12.30;99.90
54126;DHT22;40360;52.992;6.796;2023-03-21T14:34:22;12.40;99.90
54126;DHT22;40360;52.992;6.796;2023-03-21T14:36:49;12.50;99.90
54126;DHT22;40360;52.992;6.796;2023-03-21T14:39:21;13.00;99.90
54126;DHT22;40360;52.992;6.796;2023-03-21T14:41:56;12.70;99.90
54126;DHT22;40360;52.992;6.796;2023-03-21T14:44:36;13.20;99.90
54126;DHT22;40360;52.992;6.796;2023-03-21T14:47:05;13.30;99.90
54126;DHT22;40360;52.992;6.796;2023-03-21T14:49:37;14.00;99.90
54126;DHT22;40360;52.992;6.796;2023-03-21T14:52:12;13.90;99.90
54126;DHT22;40360;52.992;6.796;2023-03-21T14:54:41;13.40;99.90
54126;DHT22;40360;52.992;6.796;2023-03-21T14:57:23;13.30;99.90
54126;DHT22;40360;52.992;6.796;2023-03-21T14:59:53;13.20;99.90
54126;DHT22;40360;52.992;6.796;2023-03-21T15:02:22;13.20;99.90
54126;DHT22;40360;52.992;6.796;2023-03-21T15:04:53;13.70;99.90
54126;DHT22;40360;52.992;6.796;2023-03-21T15:07:28;12.80;99.90
54126;DHT22;40360;52.992;6.796;2023-03-21T15:09:56;12.70;99.90
54126;DHT22;40360;52.992;6.796;2023-03-21T15:12:22;13.20;99.90
54126;DHT22;40360;52.992;6.796;2023-03-21T15:14:48;12.60;99.90
54126;DHT22;40360;52.992;6.796;2023-03-21T15:17:14;12.70;99.90
54126;DHT22;40360;52.992;6.796;2023-03-21T15:19:41;13.60;99.90
54126;DHT22;40360;52.992;6.796;2023-03-21T15:24:57;12.80;99.90
54126;DHT22;40360;52.992;6.796;2023-03-21T15:27:24;12.70;99.90
54126;DHT22;40360;52.992;6.796;2023-03-21T15:29:51;13.20;99.90
54126;DHT22;40360;52.992;6.796;2023-03-21T15:32:24;12.70;99.90
54126;DHT22;40360;52.992;6.796;2023-03-21T15:34:53;12.60;99.90
54126;DHT22;40360;52.992;6.796;2023-03-21T15:37:25;13.00;99.90
54126;DHT22;40360;52.992;6.796;2023-03-21T15:39:51;13.20;99.90
54126;DHT22;40360;52.992;6.796;2023-03-21T15:42:25;13.40;99.90
54126;DHT22;40360;52.992;6.796;2023-03-21T15:44:55;12.40;99.90
54126;DHT22;40360;52.992;6.796;2023-03-21T15:53:37;12.30;99.90
54126;DHT22;40360;52.992;6.796;2023-03-21T15:56:08;12.80;99.90
54126;DHT22;40360;52.992;6.796;2023-03-21T15:58:47;12.30;99.90
54126;DHT22;40360;52.992;6.796;2023-03-21T16:01:20;12.40;99.90
54126;DHT22;40360;52.992;6.796;2023-03-21T16:04:15;12.30;99.90
54126;DHT22;40360;52.992;6.796;2023-03-21T16:07:00;13.20;99.90
54126;DHT22;40360;52.992;6.796;2023-03-21T16:09:27;12.90;99.90
54126;DHT22;40360;52.992;6.796;2023-03-21T16:11:55;12.40;99.90
54126;DHT22;40360;52.992;6.796;2023-03-21T16:14:22;11.70;99.90
54126;DHT22;40360;52.992;6.796;2023-03-21T16:16:49;12.30;99.90
54126;DHT22;40360;52.992;6.796;2023-03-21T16:19:15;12.40;99.90
54126;DHT22;40360;52.992;6.796;2023-03-21T16:21:41;12.30;99.90
54126;DHT22;40360;52.992;6.796;2023-03-21T16:24:07;13.30;99.90
54126;DHT22;40360;52.992;6.796;2023-03-21T16:26:41;12.30;99.90
54126;DHT22;40360;52.992;6.796;2023-03-21T16:29:12;12.30;99.90
54126;DHT22;40360;52.992;6.796;2023-03-21T16:31:38;12.30;99.90
54126;DHT22;40360;52.992;6.796;2023-03-21T16:34:03;12.30;99.90
54126;DHT22;40360;52.992;6.796;2023-03-21T16:36:35;12.70;99.90
54126;DHT22;40360;52.992;6.796;2023-03-21T16:39:24;12.30;99.90
54126;DHT22;40360;52.992;6.796;2023-03-21T16:41:51;12.30;99.90
54126;DHT22;40360;52.992;6.796;2023-03-21T16:44:18;12.30;99.90
54126;DHT22;40360;52.992;6.796;2023-03-21T16:46:45;12.30;99.90
54126;DHT22;40360;52.992;6.796;2023-03-21T16:49:19;12.30;99.90
54126;DHT22;40360;52.992;6.796;2023-03-21T16:51:46;11.90;99.90
54126;DHT22;40360;52.992;6.796;2023-03-21T16:54:12;12.50;99.90
54126;DHT22;40360;52.992;6.796;2023-03-21T16:56:41;12.40;99.90
54126;DHT22;40360;52.992;6.796;2023-03-21T16:59:11;12.20;99.90
54126;DHT22;40360;52.992;6.796;2023-03-21T17:01:37;12.50;99.90
54126;DHT22;40360;52.992;6.796;2023-03-21T17:04:04;12.10;99.90
54126;DHT22;40360;52.992;6.796;2023-03-21T17:06:30;12.10;99.90
54126;DHT22;40360;52.992;6.796;2023-03-21T17:08:57;11.90;99.90
54126;DHT22;40360;52.992;6.796;2023-03-21T17:11:25;11.70;99.90
54126;DHT22;40360;52.992;6.796;2023-03-21T17:13:53;11.40;99.90
54126;DHT22;40360;52.992;6.796;2023-03-21T17:16:23;11.20;99.90
54126;DHT22;40360;52.992;6.796;2023-03-21T17:18:49;12.00;99.90
54126;DHT22;40360;52.992;6.796;2023-03-21T17:21:19;11.00;99.90
54126;DHT22;40360;52.992;6.796;2023-03-21T17:23:45;10.90;99.90
54126;DHT22;40360;52.992;6.796;2023-03-21T17:26:13;10.90;99.90
54126;DHT22;40360;52.992;6.796;2023-03-21T17:28:39;10.90;99.90
54126;DHT22;40360;52.992;6.796;2023-03-21T17:31:11;11.50;99.90
54126;DHT22;40360;52.992;6.796;2023-03-21T17:33:37;10.80;99.90
54126;DHT22;40360;52.992;6.796;2023-03-21T17:36:03;11.80;99.90
54126;DHT22;40360;52.992;6.796;2023-03-21T17:38:30;10.80;99.90
54126;DHT22;40360;52.992;6.796;2023-03-21T17:40:55;10.80;99.90
54126;DHT22;40360;52.992;6.796;2023-03-21T17:43:23;10.80;99.90
54126;DHT22;40360;52.992;6.796;2023-03-21T17:45:48;10.80;99.90
54126;DHT22;40360;52.992;6.796;2023-03-21T17:48:14;11.40;99.90
54126;DHT22;40360;52.992;6.796;2023-03-21T17:50:40;10.80;99.90
54126;DHT22;40360;52.992;6.796;2023-03-21T17:53:06;10.70;99.90